sensor_id;sensor_type;location;lat;lon;timestamp;temperature;humidity
55004;DHT22;40900;52.710;6.438;2023-03-01T00:01:30;1.00;99.90
55004;DHT22;40900;52.710;6.438;2023-03-01T00:03:57;0.90;99.90
55004;DHT22;40900;52.710;6.438;2023-03-01T00:06:24;0.80;99.90
55004;DHT22;40900;52.710;6.438;2023-03-01T00:08:50;0.80;99.90
55004;DHT22;40900;52.710;6.438;2023-03-01T00:11:25;0.80;99.90
55004;DHT22;40900;52.710;6.438;2023-03-01T00:13:53;0.90;99.90
55004;DHT22;40900;52.710;6.438;2023-03-01T00:16:34;0.80;99.90
55004;DHT22;40900;52.710;6.438;2023-03-01T00:19:00;0.70;99.90
55004;DHT22;40900;52.710;6.438;2023-03-01T00:21:26;0.80;99.90
55004;DHT22;40900;52.710;6.438;2023-03-01T00:23:53;0.70;99.90
55004;DHT22;40900;52.710;6.438;2023-03-01T00:26:20;0.80;99.90
55004;DHT22;40900;52.710;6.438;2023-03-01T00:28:46;0.80;99.90
55004;DHT22;40900;52.710;6.438;2023-03-01T00:31:18;0.80;99.90
55004;DHT22;40900;52.710;6.438;2023-03-01T00:33:44;0.80;99.90
55004;DHT22;40900;52.710;6.438;2023-03-01T00:36:11;0.70;99.90
55004;DHT22;40900;52.710;6.438;2023-03-01T00:38:39;0.70;99.90
55004;DHT22;40900;52.710;6.438;2023-03-01T00:41:09;0.70;99.90
55004;DHT22;40900;52.710;6.438;2023-03-01T00:43:36;0.70;99.90
55004;DHT22;40900;52.710;6.438;2023-03-01T00:46:07;0.60;99.90
55004;DHT22;40900;52.710;6.438;2023-03-01T00:48:34;0.50;99.90
55004;DHT22;40900;52.710;6.438;2023-03-01T00:51:18;0.50;99.90
55004;DHT22;40900;52.710;6.438;2023-03-01T00:53:45;0.60;99.90
55004;DHT22;40900;52.710;6.438;2023-03-01T00:56:12;0.50;99.90
55004;DHT22;40900;52.710;6.438;2023-03-01T00:58:38;0.50;99.90
55004;DHT22;40900;52.710;6.438;2023-03-01T01:03:44;0.50;99.90
55004;DHT22;40900;52.710;6.438;2023-03-01T01:06:15;0.60;99.90
55004;DHT22;40900;52.710;6.438;2023-03-01T01:08:40;0.60;99.90
55004;DHT22;40900;52.710;6.438;2023-03-01T01:11:09;0.60;99.90
55004;DHT22;40900;52.710;6.438;2023-03-01T01:13:36;0.70;99.90
55004;DHT22;40900;52.710;6.438;2023-03-01T01:16:02;0.70;99.90
55004;DHT22;40900;52.710;6.438;2023-03-01T01:18:27;0.70;99.90
55004;DHT22;40900;52.710;6.438;2023-03-01T01:20:53;0.60;99.90
55004;DHT22;40900;52.710;6.438;2023-03-01T01:23:19;0.60;99.90
55004;DHT22;40900;52.710;6.438;2023-03-01T01:25:44;0.60;99.90
55004;DHT22;40900;52.710;6.438;2023-03-01T01:28:11;0.50;99.90
55004;DHT22;40900;52.710;6.438;2023-03-01T01:30:37;0.50;99.90
55004;DHT22;40900;52.710;6.438;2023-03-01T01:33:03;0.50;99.90
55004;DHT22;40900;52.710;6.438;2023-03-01T01:35:28;0.40;99.90
55004;DHT22;40900;52.710;6.438;2023-03-01T01:37:54;0.40;99.90
55004;DHT22;40900;52.710;6.438;2023-03-01T01:40:19;0.30;99.90
55004;DHT22;40900;52.710;6.438;2023-03-01T01:42:45;0.40;99.90
55004;DHT22;40900;52.710;6.438;2023-03-01T01:45:33;0.30;99.90
55004;DHT22;40900;52.710;6.438;2023-03-01T01:48:13;0.30;99.90
55004;DHT22;40900;52.710;6.438;2023-03-01T01:50:40;0.20;99.90
55004;DHT22;40900;52.710;6.438;2023-03-01T01:53:14;0.20;99.90
55004;DHT22;40900;52.710;6.438;2023-03-01T01:55:43;0.20;99.90
55004;DHT22;40900;52.710;6.438;2023-03-01T01:58:12;0.30;99.90
55004;DHT22;40900;52.710;6.438;2023-03-01T02:00:39;0.10;99.90
55004;DHT22;40900;52.710;6.438;2023-03-01T02:03:11;0.10;99.90
55004;DHT22;40900;52.710;6.438;2023-03-01T02:08:27;0.20;99.90
55004;DHT22;40900;52.710;6.438;2023-03-01T02:10:54;0.20;99.90
55004;DHT22;40900;52.710;6.438;2023-03-01T02:13:21;0.30;99.90
55004;DHT22;40900;52.710;6.438;2023-03-01T02:15:47;0.30;99.90
55004;DHT22;40900;52.710;6.438;2023-03-01T02:18:16;0.30;99.90
55004;DHT22;40900;52.710;6.438;2023-03-01T02:20:51;0.30;99.90
55004;DHT22;40900;52.710;6.438;2023-03-01T02:23:20;0.40;99.90
55004;DHT22;40900;52.710;6.438;2023-03-01T02:26:25;1.00;99.90
55004;DHT22;40900;52.710;6.438;2023-03-01T02:28:43;0.40;99.90
55004;DHT22;40900;52.710;6.438;2023-03-01T02:31:14;0.40;99.90
55004;DHT22;40900;52.710;6.438;2023-03-01T02:34:00;0.40;99.90
55004;DHT22;40900;52.710;6.438;2023-03-01T02:36:36;0.30;99.90
55004;DHT22;40900;52.710;6.438;2023-03-01T02:39:04;0.30;99.90
55004;DHT22;40900;52.710;6.438;2023-03-01T02:41:35;0.20;99.90
55004;DHT22;40900;52.710;6.438;2023-03-01T02:44:02;0.20;99.90
55004;DHT22;40900;52.710;6.438;2023-03-01T02:46:28;0.20;99.90
55004;DHT22;40900;52.710;6.438;2023-03-01T02:48:58;0.20;99.90
55004;DHT22;40900;52.710;6.438;2023-03-01T02:56:49;0.00;99.90
55004;DHT22;40900;52.710;6.438;2023-03-01T02:59:21;-0.20;99.90
55004;DHT22;40900;52.710;6.438;2023-03-01T03:01:47;-0.20;99.90
55004;DHT22;40900;52.710;6.438;2023-03-01T03:04:16;-0.20;99.90
55004;DHT22;40900;52.710;6.438;2023-03-01T03:06:44;-0.20;99.90
55004;DHT22;40900;52.710;6.438;2023-03-01T03:09:10;-0.30;99.90
55004;DHT22;40900;52.710;6.438;2023-03-01T03:11:37;-0.30;99.90
55004;DHT22;40900;52.710;6.438;2023-03-01T03:14:04;-0.30;99.90
55004;DHT22;40900;52.710;6.438;2023-03-01T03:16:30;-0.30;99.90
55004;DHT22;40900;52.710;6.438;2023-03-01T03:18:56;-0.30;99.90
55004;DHT22;40900;52.710;6.438;2023-03-01T03:21:33;-0.30;99.90
55004;DHT22;40900;52.710;6.438;2023-03-01T03:23:59;-0.30;99.90
55004;DHT22;40900;52.710;6.438;2023-03-01T03:26:25;-0.30;99.90
55004;DHT22;40900;52.710;6.438;2023-03-01T03:28:50;-0.40;99.90
55004;DHT22;40900;52.710;6.438;2023-03-01T03:31:16;-0.40;99.90
55004;DHT22;40900;52.710;6.438;2023-03-01T03:33:42;-0.50;99.90
55004;DHT22;40900;52.710;6.438;2023-03-01T03:36:08;-0.60;99.90
55004;DHT22;40900;52.710;6.438;2023-03-01T03:38:39;-0.70;99.90
55004;DHT22;40900;52.710;6.438;2023-03-01T03:41:07;-0.70;99.90
55004;DHT22;40900;52.710;6.438;2023-03-01T03:43:35;-0.80;99.90
55004;DHT22;40900;52.710;6.438;2023-03-01T03:46:02;-0.80;99.90
55004;DHT22;40900;52.710;6.438;2023-03-01T03:48:36;-0.80;99.90
55004;DHT22;40900;52.710;6.438;2023-03-01T03:51:02;-0.60;99.90
55004;DHT22;40900;52.710;6.438;2023-03-01T03:53:32;-0.80;99.90
55004;DHT22;40900;52.710;6.438;2023-03-01T03:55:58;-0.80;99.90
55004;DHT22;40900;52.710;6.438;2023-03-01T03:58:25;-0.70;99.90
55004;DHT22;40900;52.710;6.438;2023-03-01T04:00:54;-0.70;99.90
55004;DHT22;40900;52.710;6.438;2023-03-01T04:03:22;-0.70;99.90
55004;DHT22;40900;52.710;6.438;2023-03-01T04:05:49;-0.60;99.90
55004;DHT22;40900;52.710;6.438;2023-03-01T04:08:17;-0.70;99.90
55004;DHT22;40900;52.710;6.438;2023-03-01T04:10:47;-0.80;99.90
55004;DHT22;40900;52.710;6.438;2023-03-01T04:13:19;-0.80;99.90
55004;DHT22;40900;52.710;6.438;2023-03-01T04:15:50;-0.90;99.90
55004;DHT22;40900;52.710;6.438;2023-03-01T04:18:17;-1.00;99.90
55004;DHT22;40900;52.710;6.438;2023-03-01T04:20:43;-1.00;99.90
55004;DHT22;40900;52.710;6.438;2023-03-01T04:23:16;-1.00;99.90
55004;DHT22;40900;52.710;6.438;2023-03-01T04:25:54;-1.10;99.90
55004;DHT22;40900;52.710;6.438;2023-03-01T04:28:28;-1.20;99.90
55004;DHT22;40900;52.710;6.438;2023-03-01T04:30:56;-1.40;99.90
55004;DHT22;40900;52.710;6.438;2023-03-01T04:33:23;-1.40;99.90
55004;DHT22;40900;52.710;6.438;2023-03-01T04:35:49;-1.50;99.90
55004;DHT22;40900;52.710;6.438;2023-03-01T04:38:18;-1.50;99.90
55004;DHT22;40900;52.710;6.438;2023-03-01T04:40:44;-1.50;99.90
55004;DHT22;40900;52.710;6.438;2023-03-01T04:43:11;-1.00;99.90
55004;DHT22;40900;52.710;6.438;2023-03-01T04:45:38;-1.60;99.90
55004;DHT22;40900;52.710;6.438;2023-03-01T04:48:04;-1.60;99.90
55004;DHT22;40900;52.710;6.438;2023-03-01T04:50:30;-1.70;99.90
55004;DHT22;40900;52.710;6.438;2023-03-01T04:52:56;-1.70;99.90
55004;DHT22;40900;52.710;6.438;2023-03-01T04:55:26;-1.70;99.90
55004;DHT22;40900;52.710;6.438;2023-03-01T04:57:53;-1.70;99.90
55004;DHT22;40900;52.710;6.438;2023-03-01T05:00:19;-1.70;99.90
55004;DHT22;40900;52.710;6.438;2023-03-01T05:02:51;-1.70;99.90
55004;DHT22;40900;52.710;6.438;2023-03-01T05:05:31;-1.80;99.90
55004;DHT22;40900;52.710;6.438;2023-03-01T05:08:00;-1.80;99.90
55004;DHT22;40900;52.710;6.438;2023-03-01T05:10:27;-1.60;99.90
55004;DHT22;40900;52.710;6.438;2023-03-01T05:12:55;-1.70;99.90
55004;DHT22;40900;52.710;6.438;2023-03-01T05:15:23;-1.70;99.90
55004;DHT22;40900;52.710;6.438;2023-03-01T05:17:51;-1.80;99.90
55004;DHT22;40900;52.710;6.438;2023-03-01T05:20:17;-1.70;99.90
55004;DHT22;40900;52.710;6.438;2023-03-01T05:22:43;-1.70;99.90
55004;DHT22;40900;52.710;6.438;2023-03-01T05:25:09;-1.70;99.90
55004;DHT22;40900;52.710;6.438;2023-03-01T05:27:35;-1.60;99.90
55004;DHT22;40900;52.710;6.438;2023-03-01T05:30:02;-1.60;99.90
55004;DHT22;40900;52.710;6.438;2023-03-01T05:32:43;-1.60;99.90
55004;DHT22;40900;52.710;6.438;2023-03-01T05:35:10;-1.60;99.90
55004;DHT22;40900;52.710;6.438;2023-03-01T05:37:42;-1.60;99.90
55004;DHT22;40900;52.710;6.438;2023-03-01T05:40:10;-1.60;99.90
55004;DHT22;40900;52.710;6.438;2023-03-01T05:42:53;-1.60;99.90
55004;DHT22;40900;52.710;6.438;2023-03-01T05:45:23;-1.60;99.90
55004;DHT22;40900;52.710;6.438;2023-03-01T05:47:49;-1.70;99.90
55004;DHT22;40900;52.710;6.438;2023-03-01T05:50:20;-1.70;99.90
55004;DHT22;40900;52.710;6.438;2023-03-01T05:52:58;-1.80;99.90
55004;DHT22;40900;52.710;6.438;2023-03-01T05:55:24;-1.80;99.90
55004;DHT22;40900;52.710;6.438;2023-03-01T05:57:50;-1.80;99.90
55004;DHT22;40900;52.710;6.438;2023-03-01T06:00:19;-1.80;99.90
55004;DHT22;40900;52.710;6.438;2023-03-01T06:02:45;-1.70;99.90
55004;DHT22;40900;52.710;6.438;2023-03-01T06:05:12;-1.70;99.90
55004;DHT22;40900;52.710;6.438;2023-03-01T06:07:38;-1.60;99.90
55004;DHT22;40900;52.710;6.438;2023-03-01T06:10:05;-1.40;99.90
55004;DHT22;40900;52.710;6.438;2023-03-01T06:12:33;-1.60;99.90
55004;DHT22;40900;52.710;6.438;2023-03-01T06:14:59;-1.60;99.90
55004;DHT22;40900;52.710;6.438;2023-03-01T06:17:25;-1.50;99.90
55004;DHT22;40900;52.710;6.438;2023-03-01T06:19:51;-1.50;99.90
55004;DHT22;40900;52.710;6.438;2023-03-01T06:22:16;-1.50;99.90
55004;DHT22;40900;52.710;6.438;2023-03-01T06:24:42;-1.50;99.90
55004;DHT22;40900;52.710;6.438;2023-03-01T06:27:08;-1.50;99.90
55004;DHT22;40900;52.710;6.438;2023-03-01T06:29:34;-1.50;99.90
55004;DHT22;40900;52.710;6.438;2023-03-01T06:31:59;-1.50;99.90
55004;DHT22;40900;52.710;6.438;2023-03-01T06:34:25;-1.40;99.90
55004;DHT22;40900;52.710;6.438;2023-03-01T06:36:51;-1.50;99.90
55004;DHT22;40900;52.710;6.438;2023-03-01T06:39:16;-1.40;99.90
55004;DHT22;40900;52.710;6.438;2023-03-01T06:41:43;-1.30;99.90
55004;DHT22;40900;52.710;6.438;2023-03-01T06:44:09;-1.40;99.90
55004;DHT22;40900;52.710;6.438;2023-03-01T06:46:35;-1.30;99.90
55004;DHT22;40900;52.710;6.438;2023-03-01T06:49:00;-1.30;99.90
55004;DHT22;40900;52.710;6.438;2023-03-01T06:51:26;-1.30;99.90
55004;DHT22;40900;52.710;6.438;2023-03-01T06:53:52;-1.30;99.90
55004;DHT22;40900;52.710;6.438;2023-03-01T06:56:17;-1.20;99.90
55004;DHT22;40900;52.710;6.438;2023-03-01T06:58:43;-1.10;99.90
55004;DHT22;40900;52.710;6.438;2023-03-01T07:01:09;-1.00;99.90
55004;DHT22;40900;52.710;6.438;2023-03-01T07:03:35;-0.90;99.90
55004;DHT22;40900;52.710;6.438;2023-03-01T07:06:00;-0.80;99.90
55004;DHT22;40900;52.710;6.438;2023-03-01T07:08:26;-0.70;99.90
55004;DHT22;40900;52.710;6.438;2023-03-01T07:10:59;-0.60;99.90
55004;DHT22;40900;52.710;6.438;2023-03-01T07:13:24;-0.40;99.90
55004;DHT22;40900;52.710;6.438;2023-03-01T07:15:50;-0.20;99.90
55004;DHT22;40900;52.710;6.438;2023-03-01T07:18:16;-0.10;99.90
55004;DHT22;40900;52.710;6.438;2023-03-01T07:20:41;0.20;99.90
55004;DHT22;40900;52.710;6.438;2023-03-01T07:23:07;0.50;99.90
55004;DHT22;40900;52.710;6.438;2023-03-01T07:25:33;0.70;99.90
55004;DHT22;40900;52.710;6.438;2023-03-01T07:27:59;0.90;99.90
55004;DHT22;40900;52.710;6.438;2023-03-01T07:30:25;0.90;99.90
55004;DHT22;40900;52.710;6.438;2023-03-01T07:32:54;1.00;99.90
55004;DHT22;40900;52.710;6.438;2023-03-01T07:35:21;1.20;99.90
55004;DHT22;40900;52.710;6.438;2023-03-01T07:37:46;1.40;99.90
55004;DHT22;40900;52.710;6.438;2023-03-01T07:40:13;2.10;99.90
55004;DHT22;40900;52.710;6.438;2023-03-01T07:42:38;3.10;99.90
55004;DHT22;40900;52.710;6.438;2023-03-01T07:45:05;4.20;99.90
55004;DHT22;40900;52.710;6.438;2023-03-01T07:47:32;5.30;99.90
55004;DHT22;40900;52.710;6.438;2023-03-01T07:49:58;6.30;99.90
55004;DHT22;40900;52.710;6.438;2023-03-01T07:52:23;7.10;99.90
55004;DHT22;40900;52.710;6.438;2023-03-01T07:54:49;7.70;99.90
55004;DHT22;40900;52.710;6.438;2023-03-01T07:57:15;8.50;99.90
55004;DHT22;40900;52.710;6.438;2023-03-01T07:59:41;9.00;99.90
55004;DHT22;40900;52.710;6.438;2023-03-01T08:02:07;9.30;99.90
55004;DHT22;40900;52.710;6.438;2023-03-01T08:04:33;9.60;99.90
55004;DHT22;40900;52.710;6.438;2023-03-01T08:06:59;9.50;99.90
55004;DHT22;40900;52.710;6.438;2023-03-01T08:09:25;9.60;99.90
55004;DHT22;40900;52.710;6.438;2023-03-01T08:11:50;8.80;99.90
55004;DHT22;40900;52.710;6.438;2023-03-01T08:14:16;8.30;99.90
55004;DHT22;40900;52.710;6.438;2023-03-01T08:16:42;7.90;99.90
55004;DHT22;40900;52.710;6.438;2023-03-01T08:19:10;7.50;99.90
55004;DHT22;40900;52.710;6.438;2023-03-01T08:21:37;7.30;99.90
55004;DHT22;40900;52.710;6.438;2023-03-01T08:24:05;7.20;99.90
55004;DHT22;40900;52.710;6.438;2023-03-01T08:26:32;7.20;99.90
55004;DHT22;40900;52.710;6.438;2023-03-01T08:28:58;7.10;99.90
55004;DHT22;40900;52.710;6.438;2023-03-01T08:31:38;7.00;99.90
55004;DHT22;40900;52.710;6.438;2023-03-01T08:34:07;6.80;99.90
55004;DHT22;40900;52.710;6.438;2023-03-01T08:36:38;6.60;99.90
55004;DHT22;40900;52.710;6.438;2023-03-01T08:39:04;6.30;99.90
55004;DHT22;40900;52.710;6.438;2023-03-01T08:41:30;6.20;99.90
55004;DHT22;40900;52.710;6.438;2023-03-01T08:43:56;6.00;99.90
55004;DHT22;40900;52.710;6.438;2023-03-01T08:46:29;6.00;99.90
55004;DHT22;40900;52.710;6.438;2023-03-01T08:48:56;6.10;99.90
55004;DHT22;40900;52.710;6.438;2023-03-01T08:51:23;5.90;99.90
55004;DHT22;40900;52.710;6.438;2023-03-01T08:53:49;5.90;99.90
55004;DHT22;40900;52.710;6.438;2023-03-01T08:56:16;6.00;99.90
55004;DHT22;40900;52.710;6.438;2023-03-01T08:58:48;6.20;99.90
55004;DHT22;40900;52.710;6.438;2023-03-01T09:01:16;6.40;99.90
55004;DHT22;40900;52.710;6.438;2023-03-01T09:03:43;6.80;99.90
55004;DHT22;40900;52.710;6.438;2023-03-01T09:06:09;7.50;99.90
55004;DHT22;40900;52.710;6.438;2023-03-01T09:08:37;8.60;99.90
55004;DHT22;40900;52.710;6.438;2023-03-01T09:11:04;9.40;99.90
55004;DHT22;40900;52.710;6.438;2023-03-01T09:13:30;10.30;99.90
55004;DHT22;40900;52.710;6.438;2023-03-01T09:15:57;11.40;99.90
55004;DHT22;40900;52.710;6.438;2023-03-01T09:18:23;12.10;99.50
55004;DHT22;40900;52.710;6.438;2023-03-01T09:20:49;13.00;97.80
55004;DHT22;40900;52.710;6.438;2023-03-01T09:23:15;14.00;94.70
55004;DHT22;40900;52.710;6.438;2023-03-01T09:25:40;14.40;94.40
55004;DHT22;40900;52.710;6.438;2023-03-01T09:28:06;15.10;93.90
55004;DHT22;40900;52.710;6.438;2023-03-01T09:30:32;15.70;92.60
55004;DHT22;40900;52.710;6.438;2023-03-01T09:32:58;16.20;91.30
55004;DHT22;40900;52.710;6.438;2023-03-01T09:35:23;16.60;90.10
55004;DHT22;40900;52.710;6.438;2023-03-01T09:37:49;16.80;88.20
55004;DHT22;40900;52.710;6.438;2023-03-01T09:40:21;16.90;85.80
55004;DHT22;40900;52.710;6.438;2023-03-01T09:43:05;17.10;83.30
55004;DHT22;40900;52.710;6.438;2023-03-01T09:45:35;17.30;83.30
55004;DHT22;40900;52.710;6.438;2023-03-01T09:48:03;16.60;82.60
55004;DHT22;40900;52.710;6.438;2023-03-01T09:50:35;17.20;83.10
55004;DHT22;40900;52.710;6.438;2023-03-01T09:53:10;17.80;78.70
55004;DHT22;40900;52.710;6.438;2023-03-01T10:00:56;18.70;76.80
55004;DHT22;40900;52.710;6.438;2023-03-01T10:03:41;19.00;77.00
55004;DHT22;40900;52.710;6.438;2023-03-01T10:06:23;19.40;74.90
55004;DHT22;40900;52.710;6.438;2023-03-01T10:09:13;18.70;74.20
55004;DHT22;40900;52.710;6.438;2023-03-01T10:11:52;18.60;76.00
55004;DHT22;40900;52.710;6.438;2023-03-01T10:15:09;18.90;73.20
55004;DHT22;40900;52.710;6.438;2023-03-01T10:17:51;18.80;73.20
55004;DHT22;40900;52.710;6.438;2023-03-01T10:20:35;18.50;75.00
55004;DHT22;40900;52.710;6.438;2023-03-01T10:23:01;19.00;73.90
55004;DHT22;40900;52.710;6.438;2023-03-01T10:25:47;19.70;72.70
55004;DHT22;40900;52.710;6.438;2023-03-01T10:28:25;19.80;72.50
55004;DHT22;40900;52.710;6.438;2023-03-01T10:30:53;19.70;73.20
55004;DHT22;40900;52.710;6.438;2023-03-01T10:33:38;19.90;73.70
55004;DHT22;40900;52.710;6.438;2023-03-01T10:36:07;20.80;71.00
55004;DHT22;40900;52.710;6.438;2023-03-01T10:38:54;21.20;70.70
55004;DHT22;40900;52.710;6.438;2023-03-01T10:41:21;21.40;67.50
55004;DHT22;40900;52.710;6.438;2023-03-01T10:43:56;20.50;69.20
55004;DHT22;40900;52.710;6.438;2023-03-01T10:51:33;19.70;69.50
55004;DHT22;40900;52.710;6.438;2023-03-01T10:53:59;19.60;69.50
55004;DHT22;40900;52.710;6.438;2023-03-01T10:56:24;18.90;70.10
55004;DHT22;40900;52.710;6.438;2023-03-01T10:58:59;19.50;70.00
55004;DHT22;40900;52.710;6.438;2023-03-01T11:01:26;19.70;70.80
55004;DHT22;40900;52.710;6.438;2023-03-01T11:06:33;20.30;68.20
55004;DHT22;40900;52.710;6.438;2023-03-01T11:09:20;19.40;69.60
55004;DHT22;40900;52.710;6.438;2023-03-01T11:11:51;18.70;69.20
55004;DHT22;40900;52.710;6.438;2023-03-01T11:14:25;19.00;70.90
55004;DHT22;40900;52.710;6.438;2023-03-01T11:17:29;19.50;69.20
55004;DHT22;40900;52.710;6.438;2023-03-01T11:22:55;18.50;71.20
55004;DHT22;40900;52.710;6.438;2023-03-01T11:25:44;18.70;71.40
55004;DHT22;40900;52.710;6.438;2023-03-01T11:28:17;18.50;72.00
55004;DHT22;40900;52.710;6.438;2023-03-01T11:31:07;18.30;71.70
55004;DHT22;40900;52.710;6.438;2023-03-01T11:36:50;17.90;73.00
55004;DHT22;40900;52.710;6.438;2023-03-01T11:39:38;17.20;73.10
55004;DHT22;40900;52.710;6.438;2023-03-01T11:43:11;15.80;75.50
55004;DHT22;40900;52.710;6.438;2023-03-01T11:45:11;14.70;76.50
55004;DHT22;40900;52.710;6.438;2023-03-01T11:50:25;13.20;79.40
55004;DHT22;40900;52.710;6.438;2023-03-01T12:01:30;12.10;81.20
55004;DHT22;40900;52.710;6.438;2023-03-01T12:04:30;11.90;81.60
55004;DHT22;40900;52.710;6.438;2023-03-01T12:18:39;11.40;82.00
55004;DHT22;40900;52.710;6.438;2023-03-01T12:26:30;11.20;85.00
55004;DHT22;40900;52.710;6.438;2023-03-01T12:51:02;10.70;87.70
55004;DHT22;40900;52.710;6.438;2023-03-01T12:53:32;10.80;85.60
55004;DHT22;40900;52.710;6.438;2023-03-01T12:56:11;10.70;86.80
55004;DHT22;40900;52.710;6.438;2023-03-01T13:04:54;10.80;88.00
55004;DHT22;40900;52.710;6.438;2023-03-01T13:20:17;10.50;86.90
55004;DHT22;40900;52.710;6.438;2023-03-01T13:22:43;10.60;87.10
55004;DHT22;40900;52.710;6.438;2023-03-01T13:25:18;10.70;87.00
55004;DHT22;40900;52.710;6.438;2023-03-01T13:27:46;10.70;87.90
55004;DHT22;40900;52.710;6.438;2023-03-01T13:35:57;10.40;88.90
55004;DHT22;40900;52.710;6.438;2023-03-01T13:41:12;10.50;89.30
55004;DHT22;40900;52.710;6.438;2023-03-01T13:43:41;10.50;89.50
55004;DHT22;40900;52.710;6.438;2023-03-01T13:46:22;10.50;89.50
55004;DHT22;40900;52.710;6.438;2023-03-01T13:48:56;10.40;89.30
55004;DHT22;40900;52.710;6.438;2023-03-01T13:51:27;10.30;89.50
55004;DHT22;40900;52.710;6.438;2023-03-01T13:53:55;10.50;88.80
55004;DHT22;40900;52.710;6.438;2023-03-01T13:56:25;10.40;88.80
55004;DHT22;40900;52.710;6.438;2023-03-01T13:58:54;10.20;89.00
55004;DHT22;40900;52.710;6.438;2023-03-01T14:01:28;10.20;89.40
55004;DHT22;40900;52.710;6.438;2023-03-01T14:03:55;10.30;89.70
55004;DHT22;40900;52.710;6.438;2023-03-01T14:06:32;10.00;90.30
55004;DHT22;40900;52.710;6.438;2023-03-01T14:09:23;10.00;90.30
55004;DHT22;40900;52.710;6.438;2023-03-01T14:18:04;10.10;90.60
55004;DHT22;40900;52.710;6.438;2023-03-01T14:20:32;10.10;90.70
55004;DHT22;40900;52.710;6.438;2023-03-01T14:23:02;10.00;91.00
55004;DHT22;40900;52.710;6.438;2023-03-01T14:25:36;10.10;90.80
55004;DHT22;40900;52.710;6.438;2023-03-01T14:28:33;10.10;89.20
55004;DHT22;40900;52.710;6.438;2023-03-01T14:31:03;10.10;88.20
55004;DHT22;40900;52.710;6.438;2023-03-01T14:33:54;10.10;89.00
55004;DHT22;40900;52.710;6.438;2023-03-01T14:36:27;9.90;89.20
55004;DHT22;40900;52.710;6.438;2023-03-01T14:38:53;10.00;89.70
55004;DHT22;40900;52.710;6.438;2023-03-01T14:41:24;10.10;89.00
55004;DHT22;40900;52.710;6.438;2023-03-01T14:44:05;9.90;88.80
55004;DHT22;40900;52.710;6.438;2023-03-01T14:46:37;9.90;87.60
55004;DHT22;40900;52.710;6.438;2023-03-01T14:49:05;9.90;87.60
55004;DHT22;40900;52.710;6.438;2023-03-01T14:51:46;9.90;88.60
55004;DHT22;40900;52.710;6.438;2023-03-01T14:54:27;9.90;90.10
55004;DHT22;40900;52.710;6.438;2023-03-01T14:56:57;9.90;90.70
55004;DHT22;40900;52.710;6.438;2023-03-01T14:59:24;9.90;90.90
55004;DHT22;40900;52.710;6.438;2023-03-01T15:01:51;9.70;90.30
55004;DHT22;40900;52.710;6.438;2023-03-01T15:04:19;9.50;90.70
55004;DHT22;40900;52.710;6.438;2023-03-01T15:06:45;9.60;90.90
55004;DHT22;40900;52.710;6.438;2023-03-01T15:09:15;9.60;91.30
55004;DHT22;40900;52.710;6.438;2023-03-01T15:11:42;9.60;91.20
55004;DHT22;40900;52.710;6.438;2023-03-01T15:14:39;9.70;90.70
55004;DHT22;40900;52.710;6.438;2023-03-01T15:17:40;9.70;91.10
55004;DHT22;40900;52.710;6.438;2023-03-01T15:20:17;9.60;91.60
55004;DHT22;40900;52.710;6.438;2023-03-01T15:22:44;9.70;91.80
55004;DHT22;40900;52.710;6.438;2023-03-01T15:25:26;9.70;91.80
55004;DHT22;40900;52.710;6.438;2023-03-01T15:27:53;9.50;92.10
55004;DHT22;40900;52.710;6.438;2023-03-01T15:30:32;9.50;92.00
55004;DHT22;40900;52.710;6.438;2023-03-01T15:33:34;9.50;92.30
55004;DHT22;40900;52.710;6.438;2023-03-01T15:36:02;9.40;92.90
55004;DHT22;40900;52.710;6.438;2023-03-01T15:38:34;9.40;93.00
55004;DHT22;40900;52.710;6.438;2023-03-01T15:41:05;9.40;93.40
55004;DHT22;40900;52.710;6.438;2023-03-01T15:43:42;9.40;93.20
55004;DHT22;40900;52.710;6.438;2023-03-01T15:46:38;9.30;92.90
55004;DHT22;40900;52.710;6.438;2023-03-01T15:49:40;9.30;92.90
55004;DHT22;40900;52.710;6.438;2023-03-01T15:55:02;9.10;93.20
55004;DHT22;40900;52.710;6.438;2023-03-01T15:57:28;8.90;93.40
55004;DHT22;40900;52.710;6.438;2023-03-01T15:59:54;8.90;93.60
55004;DHT22;40900;52.710;6.438;2023-03-01T16:02:20;8.90;93.90
55004;DHT22;40900;52.710;6.438;2023-03-01T16:04:47;8.90;94.10
55004;DHT22;40900;52.710;6.438;2023-03-01T16:07:15;8.90;93.70
55004;DHT22;40900;52.710;6.438;2023-03-01T16:09:41;8.90;93.80
55004;DHT22;40900;52.710;6.438;2023-03-01T16:12:16;8.90;94.00
55004;DHT22;40900;52.710;6.438;2023-03-01T16:14:42;8.90;94.50
55004;DHT22;40900;52.710;6.438;2023-03-01T16:17:08;8.80;94.80
55004;DHT22;40900;52.710;6.438;2023-03-01T16:19:36;8.70;94.90
55004;DHT22;40900;52.710;6.438;2023-03-01T16:22:03;8.70;95.20
55004;DHT22;40900;52.710;6.438;2023-03-01T16:24:28;8.60;95.20
55004;DHT22;40900;52.710;6.438;2023-03-01T16:26:54;8.60;95.40
55004;DHT22;40900;52.710;6.438;2023-03-01T16:29:20;8.60;95.50
55004;DHT22;40900;52.710;6.438;2023-03-01T16:31:46;8.50;96.00
55004;DHT22;40900;52.710;6.438;2023-03-01T16:34:12;8.50;96.10
55004;DHT22;40900;52.710;6.438;2023-03-01T16:36:38;8.40;96.80
55004;DHT22;40900;52.710;6.438;2023-03-01T16:39:04;8.40;96.70
55004;DHT22;40900;52.710;6.438;2023-03-01T16:41:30;8.40;97.30
55004;DHT22;40900;52.710;6.438;2023-03-01T16:43:56;8.30;97.50
55004;DHT22;40900;52.710;6.438;2023-03-01T16:46:25;8.20;97.80
55004;DHT22;40900;52.710;6.438;2023-03-01T16:48:51;8.20;98.00
55004;DHT22;40900;52.710;6.438;2023-03-01T16:51:18;8.10;98.30
55004;DHT22;40900;52.710;6.438;2023-03-01T16:53:44;8.00;99.40
55004;DHT22;40900;52.710;6.438;2023-03-01T16:56:11;7.90;99.40
55004;DHT22;40900;52.710;6.438;2023-03-01T16:58:38;7.90;99.60
55004;DHT22;40900;52.710;6.438;2023-03-01T17:01:17;7.80;99.90
55004;DHT22;40900;52.710;6.438;2023-03-01T17:03:44;7.70;99.90
55004;DHT22;40900;52.710;6.438;2023-03-01T17:06:14;7.70;99.90
55004;DHT22;40900;52.710;6.438;2023-03-01T17:08:40;7.60;99.90
55004;DHT22;40900;52.710;6.438;2023-03-01T17:11:10;7.50;99.90
55004;DHT22;40900;52.710;6.438;2023-03-01T17:13:37;7.50;99.90
55004;DHT22;40900;52.710;6.438;2023-03-01T17:16:08;7.50;99.90
55004;DHT22;40900;52.710;6.438;2023-03-01T17:18:34;7.40;99.90
55004;DHT22;40900;52.710;6.438;2023-03-01T17:21:01;7.40;99.90
55004;DHT22;40900;52.710;6.438;2023-03-01T17:23:28;7.40;99.90
55004;DHT22;40900;52.710;6.438;2023-03-01T17:25:54;7.40;99.90
55004;DHT22;40900;52.710;6.438;2023-03-01T17:28:26;7.40;99.90
55004;DHT22;40900;52.710;6.438;2023-03-01T17:30:52;7.30;99.90
55004;DHT22;40900;52.710;6.438;2023-03-01T17:33:19;7.30;99.90
55004;DHT22;40900;52.710;6.438;2023-03-01T17:35:45;7.20;99.90
55004;DHT22;40900;52.710;6.438;2023-03-01T17:38:13;7.20;99.90
55004;DHT22;40900;52.710;6.438;2023-03-01T17:40:41;7.20;99.90
55004;DHT22;40900;52.710;6.438;2023-03-01T17:43:07;7.20;99.90
55004;DHT22;40900;52.710;6.438;2023-03-01T17:45:36;7.10;99.90
55004;DHT22;40900;52.710;6.438;2023-03-01T17:48:02;7.10;99.90
55004;DHT22;40900;52.710;6.438;2023-03-01T17:50:28;7.10;99.90
55004;DHT22;40900;52.710;6.438;2023-03-01T17:52:54;7.00;99.90